createdAt,value
2019-06-20T00:00:32.592Z,8.98
2019-06-20T00:03:00.234Z,7.25
2019-06-20T00:05:27.774Z,9.93
2019-06-20T00:07:55.348Z,10.58
2019-06-20T00:10:22.865Z,8.35
2019-06-20T00:12:59.805Z,16.30
2019-06-20T00:15:20.462Z,9.70
2019-06-20T00:17:48.202Z,12.43
2019-06-20T00:20:17.584Z,8.60
2019-06-20T00:22:45.159Z,10.68
2019-06-20T00:25:15.249Z,10.40
2019-06-20T00:27:42.731Z,10.53
2019-06-20T00:30:10.666Z,12.58
2019-06-20T00:32:38.275Z,10.08
2019-06-20T00:35:06.519Z,14.45
2019-06-20T00:37:34.217Z,12.75
2019-06-20T00:40:01.739Z,10.13
2019-06-20T00:42:29.322Z,11.93
2019-06-20T00:47:24.214Z,13.62
2019-06-20T00:49:52.026Z,9.90
2019-06-20T00:52:19.527Z,10.48
2019-06-20T00:54:47.050Z,9.20
2019-06-20T00:57:14.610Z,6.72
2019-06-20T00:59:43.405Z,5.50
2019-06-20T01:02:10.908Z,12.10
2019-06-20T01:04:38.493Z,7.45
2019-06-20T01:07:06.483Z,5.17
2019-06-20T01:09:34.129Z,7.95
2019-06-20T01:12:01.646Z,5.92
2019-06-20T01:14:29.240Z,5.80
2019-06-20T01:16:57.073Z,11.60
2019-06-20T01:19:24.666Z,7.40
2019-06-20T01:21:52.183Z,7.53
2019-06-20T01:24:21.641Z,5.03
2019-06-20T01:26:49.198Z,5.62
2019-06-20T01:29:16.661Z,6.15
2019-06-20T01:31:44.253Z,5.30
2019-06-20T01:34:12.121Z,4.33
2019-06-20T01:36:39.645Z,9.78
2019-06-20T01:39:07.304Z,6.90
2019-06-20T01:41:34.905Z,5.37
2019-06-20T01:44:02.578Z,6.10
2019-06-20T01:46:30.384Z,4.50
2019-06-20T01:48:58.001Z,7.58
2019-06-20T01:51:25.768Z,9.10
2019-06-20T01:53:53.432Z,4.83
2019-06-20T01:56:20.929Z,7.85
2019-06-20T01:58:48.648Z,5.92
2019-06-20T02:01:16.307Z,7.35
2019-06-20T02:03:43.880Z,5.30
2019-06-20T02:06:11.385Z,5.60
2019-06-20T02:08:38.968Z,7.87
2019-06-20T02:11:06.535Z,4.70
2019-06-20T02:13:34.063Z,7.90
2019-06-20T02:16:01.626Z,7.97
2019-06-20T02:18:29.117Z,6.78
2019-06-20T02:20:57.331Z,10.40
2019-06-20T02:23:24.974Z,11.18
2019-06-20T02:25:52.448Z,8.03
2019-06-20T02:28:20.091Z,7.22
2019-06-20T02:30:47.978Z,8.30
2019-06-20T02:33:15.438Z,6.50
2019-06-20T02:35:42.949Z,6.15
2019-06-20T02:38:10.418Z,4.45
2019-06-20T02:40:38.035Z,9.33
2019-06-20T02:43:05.592Z,9.75
2019-06-20T02:45:39.115Z,6.47
2019-06-20T02:48:06.765Z,4.75
2019-06-20T02:50:34.233Z,7.87
2019-06-20T02:53:01.843Z,5.87
2019-06-20T02:55:29.589Z,8.90
2019-06-20T02:57:57.079Z,9.28
2019-06-20T03:00:39.238Z,6.33
2019-06-20T03:03:06.764Z,5.92
2019-06-20T03:05:34.207Z,5.92
2019-06-20T03:08:01.668Z,5.10
2019-06-20T03:10:29.233Z,7.20
2019-06-20T03:12:56.965Z,7.47
2019-06-20T03:15:24.417Z,5.53
2019-06-20T03:17:51.916Z,4.67
2019-06-20T03:20:19.373Z,7.42
2019-06-20T03:22:46.823Z,6.35
2019-06-20T03:25:14.532Z,5.90
2019-06-20T03:27:42.070Z,6.67
2019-06-20T03:30:10.448Z,6.47
2019-06-20T03:32:37.997Z,5.33
2019-06-20T03:35:05.450Z,5.62
2019-06-20T03:37:32.986Z,6.53
2019-06-20T03:40:19.938Z,7.97
2019-06-20T03:42:47.433Z,8.03
2019-06-20T03:45:15.281Z,12.82
2019-06-20T03:47:42.758Z,5.45
2019-06-20T03:50:11.243Z,6.75
2019-06-20T03:52:38.835Z,9.18
2019-06-20T03:55:06.404Z,6.30
2019-06-20T03:57:33.900Z,6.03
2019-06-20T04:00:01.398Z,10.45
2019-06-20T04:02:28.921Z,4.92
2019-06-20T04:04:56.403Z,10.50
2019-06-20T04:07:23.867Z,7.22
2019-06-20T04:09:51.370Z,10.18
2019-06-20T04:12:18.922Z,6.75
2019-06-20T04:14:48.985Z,6.72
2019-06-20T04:17:15.662Z,7.67
2019-06-20T04:19:43.093Z,6.33
2019-06-20T04:22:10.525Z,7.03
2019-06-20T04:24:38.038Z,3.70
2019-06-20T04:27:05.513Z,7.25
2019-06-20T04:29:35.882Z,6.08
2019-06-20T04:32:02.237Z,5.67
2019-06-20T04:34:29.683Z,4.30
2019-06-20T04:36:57.179Z,3.20
2019-06-20T04:39:24.686Z,5.47
2019-06-20T04:41:52.188Z,4.75
2019-06-20T04:44:19.751Z,4.17
2019-06-20T04:46:56.336Z,3.37
2019-06-20T04:49:23.808Z,2.52
2019-06-20T04:51:51.350Z,2.70
2019-06-20T04:54:18.811Z,5.65
2019-06-20T04:56:46.269Z,4.87
2019-06-20T04:59:13.759Z,5.40
2019-06-20T05:01:41.214Z,4.85
2019-06-20T05:04:08.655Z,5.55
2019-06-20T05:06:36.180Z,3.92
2019-06-20T05:09:05.530Z,3.77
2019-06-20T05:11:33.014Z,2.52
2019-06-20T05:14:00.661Z,2.27
2019-06-20T05:16:28.412Z,3.47
2019-06-20T05:18:55.824Z,3.37
2019-06-20T05:21:23.276Z,3.47
2019-06-20T05:23:50.772Z,4.78
2019-06-20T05:26:18.233Z,3.05
2019-06-20T05:28:45.742Z,2.95
2019-06-20T05:31:13.240Z,3.92
2019-06-20T05:33:41.042Z,3.17
2019-06-20T05:36:08.955Z,4.72
2019-06-20T05:38:36.756Z,3.02
2019-06-20T05:41:04.255Z,5.03
2019-06-20T05:43:31.773Z,1.75
2019-06-20T05:46:08.810Z,3.12
2019-06-20T05:48:28.817Z,5.85
2019-06-20T05:50:56.353Z,1.50
2019-06-20T05:53:23.905Z,3.17
2019-06-20T05:55:51.337Z,4.50
2019-06-20T05:58:18.863Z,4.97
2019-06-20T06:00:46.371Z,4.40
2019-06-20T06:03:13.905Z,3.40
2019-06-20T06:05:41.341Z,2.72
2019-06-20T06:08:08.814Z,3.17
2019-06-20T06:10:36.295Z,3.08
2019-06-20T06:13:04.053Z,2.12
2019-06-20T06:15:31.587Z,3.62
2019-06-20T06:17:59.050Z,2.83
2019-06-20T06:20:26.536Z,4.87
2019-06-20T06:22:54.037Z,2.83
2019-06-20T06:25:21.528Z,3.87
2019-06-20T06:27:49.076Z,4.85
2019-06-20T06:30:16.738Z,4.28
2019-06-20T06:32:44.207Z,4.97
2019-06-20T06:35:12.022Z,6.95
2019-06-20T06:37:39.531Z,4.95
2019-06-20T06:40:08.169Z,3.42
2019-06-20T06:42:35.653Z,6.45
2019-06-20T06:45:04.458Z,3.10
2019-06-20T06:47:32.006Z,3.70
2019-06-20T06:49:59.562Z,3.22
2019-06-20T06:52:27.039Z,4.00
2019-06-20T06:54:54.585Z,3.55
2019-06-20T06:57:22.085Z,4.53
2019-06-20T06:59:49.580Z,3.20
2019-06-20T07:02:17.102Z,6.58
2019-06-20T07:04:44.575Z,5.60
2019-06-20T07:07:12.159Z,4.08
2019-06-20T07:09:39.622Z,3.33
2019-06-20T07:12:07.078Z,4.15
2019-06-20T07:14:34.597Z,4.25
2019-06-20T07:17:02.072Z,3.55
2019-06-20T07:19:29.935Z,4.83
2019-06-20T07:21:57.465Z,4.95
2019-06-20T07:24:25.045Z,3.27
2019-06-20T07:26:52.537Z,4.15
2019-06-20T07:29:19.991Z,5.50
2019-06-20T07:31:47.528Z,3.52
2019-06-20T07:34:15.013Z,5.22
2019-06-20T07:36:42.462Z,3.25
2019-06-20T07:39:09.969Z,5.85
2019-06-20T07:41:37.445Z,3.17
2019-06-20T07:44:04.919Z,2.22
2019-06-20T07:46:32.839Z,3.70
2019-06-20T07:49:00.390Z,5.08
2019-06-20T07:51:28.073Z,3.02
2019-06-20T07:53:55.563Z,4.92
2019-06-20T07:56:23.103Z,4.10
2019-06-20T07:58:50.580Z,3.87
2019-06-20T08:01:18.134Z,8.75
2019-06-20T08:03:45.648Z,3.52
2019-06-20T08:06:13.706Z,6.70
2019-06-20T08:08:41.338Z,3.00
2019-06-20T08:11:09.216Z,4.70
2019-06-20T08:13:36.890Z,4.58
2019-06-20T08:16:04.379Z,4.55
2019-06-20T08:18:31.882Z,4.03
2019-06-20T08:20:59.372Z,3.08
2019-06-20T08:23:26.840Z,5.72
2019-06-20T08:25:55.712Z,3.50
2019-06-20T08:28:23.951Z,5.20
2019-06-20T08:30:51.448Z,4.55
2019-06-20T08:33:18.948Z,5.08
2019-06-20T08:35:46.423Z,3.50
2019-06-20T08:38:14.327Z,5.17
2019-06-20T08:40:41.792Z,5.35
2019-06-20T08:43:09.675Z,3.47
2019-06-20T08:45:38.364Z,4.60
2019-06-20T08:48:07.419Z,3.08
2019-06-20T08:50:35.342Z,3.90
2019-06-20T08:53:03.652Z,5.28
2019-06-20T08:55:31.240Z,6.30
2019-06-20T08:57:59.694Z,3.02
2019-06-20T09:00:30.342Z,4.55
2019-06-20T09:02:58.731Z,9.03
2019-06-20T09:05:26.529Z,4.70
2019-06-20T09:07:55.352Z,3.40
2019-06-20T09:10:29.800Z,2.27
2019-06-20T09:12:57.307Z,3.22
2019-06-20T09:15:24.944Z,3.85
2019-06-20T09:17:54.088Z,2.62
2019-06-20T09:20:21.845Z,2.45
2019-06-20T09:22:50.135Z,2.62
2019-06-20T09:25:17.701Z,4.37
2019-06-20T09:27:45.436Z,3.98
2019-06-20T09:30:15.256Z,3.98
2019-06-20T09:32:42.773Z,2.60
2019-06-20T09:35:11.822Z,3.37
2019-06-20T09:37:39.290Z,3.00
2019-06-20T09:40:07.362Z,2.52
2019-06-20T09:42:36.929Z,3.42
2019-06-20T09:45:05.637Z,4.37
2019-06-20T09:47:33.174Z,8.95
2019-06-20T09:50:00.687Z,4.87
2019-06-20T09:52:28.172Z,2.75
2019-06-20T09:54:56.187Z,3.85
2019-06-20T09:57:23.682Z,2.12
2019-06-20T10:00:03.102Z,3.40
2019-06-20T10:02:20.467Z,3.33
2019-06-20T10:04:49.509Z,3.35
2019-06-20T10:07:21.634Z,2.27
2019-06-20T10:09:49.925Z,5.10
2019-06-20T10:12:17.435Z,3.65
2019-06-20T10:14:45.466Z,4.87
2019-06-20T10:17:13.991Z,3.60
2019-06-20T10:19:41.452Z,2.05
2019-06-20T10:22:08.927Z,3.58
2019-06-20T10:24:36.418Z,3.17
2019-06-20T10:27:04.047Z,2.35
2019-06-20T10:29:31.546Z,3.87
2019-06-20T10:31:59.226Z,2.72
2019-06-20T10:34:26.737Z,3.92
2019-06-20T10:36:54.182Z,2.62
2019-06-20T10:39:21.668Z,1.80
2019-06-20T10:41:50.261Z,2.40
2019-06-20T10:44:18.025Z,3.33
2019-06-20T10:46:46.154Z,1.90
2019-06-20T10:49:14.729Z,2.25
2019-06-20T10:51:45.810Z,1.85
2019-06-20T10:54:13.607Z,2.90
2019-06-20T10:56:42.235Z,6.20
2019-06-20T10:59:10.983Z,3.90
2019-06-20T11:01:39.846Z,1.65
2019-06-20T11:04:15.815Z,5.10
2019-06-20T11:06:49.890Z,4.37
2019-06-20T11:09:17.378Z,2.87
2019-06-20T11:11:44.920Z,1.82
2019-06-20T11:14:12.646Z,3.47
2019-06-20T11:16:43.393Z,3.12
2019-06-20T11:19:11.707Z,3.47
2019-06-20T11:21:41.485Z,2.40
2019-06-20T11:24:09.101Z,1.67
2019-06-20T11:26:37.736Z,2.72
2019-06-20T11:29:07.003Z,2.35
2019-06-20T11:31:34.801Z,3.12
2019-06-20T11:34:02.545Z,3.52
2019-06-20T11:36:31.024Z,2.52
2019-06-20T11:38:59.971Z,2.87
2019-06-20T11:41:27.769Z,4.05
2019-06-20T11:43:55.676Z,3.77
2019-06-20T11:46:23.627Z,3.92
2019-06-20T11:48:51.137Z,2.83
2019-06-20T11:51:18.637Z,4.33
2019-06-20T11:53:46.672Z,2.50
2019-06-20T11:56:14.217Z,2.75
2019-06-20T11:58:42.631Z,1.98
2019-06-20T12:01:10.486Z,2.90
2019-06-20T12:03:39.011Z,1.62
2019-06-20T12:06:07.801Z,2.83
2019-06-20T12:08:35.323Z,1.95
2019-06-20T12:11:02.857Z,2.85
2019-06-20T12:13:30.322Z,3.10
2019-06-20T12:15:57.846Z,3.27
2019-06-20T12:18:25.398Z,2.20
2019-06-20T12:20:53.403Z,2.40
2019-06-20T12:23:21.015Z,2.83
2019-06-20T12:25:48.777Z,3.87
2019-06-20T12:28:16.562Z,2.65
2019-06-20T12:30:45.581Z,3.10
2019-06-20T12:33:13.366Z,2.77
2019-06-20T12:35:42.648Z,3.37
2019-06-20T12:38:10.376Z,4.05
2019-06-20T12:40:39.180Z,2.98
2019-06-20T12:43:07.360Z,4.97
2019-06-20T12:45:35.225Z,3.15
2019-06-20T12:48:02.771Z,3.98
2019-06-20T12:50:30.339Z,3.87
2019-06-20T12:52:57.839Z,5.87
2019-06-20T12:55:25.490Z,5.22
2019-06-20T12:57:53.231Z,2.25
2019-06-20T13:00:21.241Z,5.50
2019-06-20T13:02:49.720Z,9.40
2019-06-20T13:05:18.103Z,13.28
2019-06-20T13:07:46.420Z,14.50
2019-06-20T13:10:15.276Z,7.30
2019-06-20T13:12:44.317Z,7.97
2019-06-20T13:15:12.690Z,8.18
2019-06-20T13:17:41.946Z,6.00
2019-06-20T13:20:10.638Z,4.78
2019-06-20T13:22:39.553Z,4.97
2019-06-20T13:25:07.883Z,7.70
2019-06-20T13:27:36.348Z,6.17
2019-06-20T13:30:05.026Z,4.47
2019-06-20T13:32:32.916Z,4.90
2019-06-20T13:35:00.576Z,4.22
2019-06-20T13:37:28.537Z,8.38
2019-06-20T13:39:56.063Z,7.17
2019-06-20T13:42:23.523Z,5.97
2019-06-20T13:44:51.109Z,3.92
2019-06-20T13:47:18.610Z,5.40
2019-06-20T13:49:46.090Z,5.67
2019-06-20T13:52:13.654Z,7.30
2019-06-20T13:54:42.820Z,4.25
2019-06-20T13:57:10.400Z,7.50
2019-06-20T13:59:37.831Z,3.98
2019-06-20T14:02:06.968Z,5.95
2019-06-20T14:04:34.550Z,4.33
2019-06-20T14:07:02.299Z,3.72
2019-06-20T14:09:29.815Z,4.97
2019-06-20T14:11:57.321Z,2.80
2019-06-20T14:14:24.774Z,4.30
2019-06-20T14:16:52.293Z,3.27
2019-06-20T14:19:19.750Z,5.67
2019-06-20T14:21:47.286Z,2.62
2019-06-20T14:24:15.130Z,2.50
2019-06-20T14:26:44.697Z,3.83
2019-06-20T14:29:11.952Z,3.10
2019-06-20T14:31:39.402Z,3.02
2019-06-20T14:34:07.016Z,5.90
2019-06-20T14:36:34.483Z,3.45
2019-06-20T14:39:02.024Z,3.55
2019-06-20T14:41:29.564Z,4.95
2019-06-20T14:43:57.142Z,4.72
2019-06-20T14:46:25.062Z,4.05
2019-06-20T14:48:52.646Z,6.22
2019-06-20T14:51:20.543Z,4.80
2019-06-20T14:53:49.446Z,5.05
2019-06-20T14:56:16.963Z,3.25
2019-06-20T14:58:44.928Z,4.35
2019-06-20T15:01:12.553Z,3.30
2019-06-20T15:03:40.809Z,3.60
2019-06-20T15:06:08.847Z,3.30
2019-06-20T15:08:36.319Z,6.72
2019-06-20T15:11:03.799Z,6.55
2019-06-20T15:13:31.291Z,6.17
2019-06-20T15:15:58.725Z,4.97
2019-06-20T15:18:26.165Z,3.42
2019-06-20T15:20:57.129Z,3.95
2019-06-20T15:23:22.950Z,3.30
2019-06-20T15:25:50.514Z,3.42
2019-06-20T15:28:19.333Z,7.15
2019-06-20T15:30:47.606Z,3.52
2019-06-20T15:33:16.057Z,7.20
2019-06-20T15:35:43.565Z,3.72
2019-06-20T15:38:11.041Z,5.35
2019-06-20T15:40:38.545Z,7.10
2019-06-20T15:43:05.990Z,3.17
2019-06-20T15:45:33.479Z,3.55
2019-06-20T15:48:00.973Z,3.60
2019-06-20T15:50:28.460Z,2.10
2019-06-20T15:52:56.171Z,2.95
2019-06-20T15:55:24.250Z,4.15
2019-06-20T15:57:54.049Z,3.85
2019-06-20T16:00:21.206Z,5.37
2019-06-20T16:02:49.107Z,4.00
2019-06-20T16:05:16.952Z,2.22
2019-06-20T16:07:44.521Z,2.72
2019-06-20T16:10:13.323Z,3.83
2019-06-20T16:12:43.603Z,3.17
2019-06-20T16:15:13.393Z,6.65
2019-06-20T16:17:41.262Z,3.00
2019-06-20T16:20:10.209Z,5.40
2019-06-20T16:22:37.715Z,2.27
2019-06-20T16:25:05.556Z,3.27
2019-06-20T16:27:33.148Z,1.95
2019-06-20T16:30:01.126Z,1.82
2019-06-20T16:32:28.683Z,2.02
2019-06-20T16:34:56.220Z,3.12
2019-06-20T16:37:23.828Z,2.20
2019-06-20T16:39:51.416Z,4.20
2019-06-20T16:42:19.366Z,4.75
2019-06-20T16:44:47.088Z,3.35
2019-06-20T16:47:15.706Z,2.85
2019-06-20T16:49:43.294Z,3.05
2019-06-20T16:52:10.885Z,3.67
2019-06-20T16:54:39.421Z,2.67
2019-06-20T16:57:06.971Z,4.45
2019-06-20T16:59:34.537Z,3.90
2019-06-20T17:02:02.108Z,3.87
2019-06-20T17:04:29.719Z,2.80
2019-06-20T17:06:57.256Z,4.22
2019-06-20T17:09:24.797Z,2.45
2019-06-20T17:11:52.305Z,4.03
2019-06-20T17:14:20.024Z,3.80
2019-06-20T17:16:48.217Z,2.30
2019-06-20T17:19:15.728Z,5.33
2019-06-20T17:21:43.292Z,4.78
2019-06-20T17:24:11.113Z,3.65
2019-06-20T17:26:38.645Z,3.47
2019-06-20T17:29:06.233Z,3.50
2019-06-20T17:31:33.774Z,2.25
2019-06-20T17:34:01.365Z,2.83
2019-06-20T17:36:30.808Z,3.20
2019-06-20T17:38:58.346Z,3.08
2019-06-20T17:41:25.883Z,2.70
2019-06-20T17:43:53.423Z,4.08
2019-06-20T17:46:21.049Z,2.65
2019-06-20T17:48:49.497Z,4.33
2019-06-20T17:51:17.084Z,2.10
2019-06-20T17:53:44.639Z,2.60
2019-06-20T17:56:12.198Z,4.78
2019-06-20T17:58:39.811Z,3.87
2019-06-20T18:01:07.420Z,3.02
2019-06-20T18:03:34.953Z,5.30
2019-06-20T18:06:02.471Z,3.90
2019-06-20T18:08:30.081Z,3.25
2019-06-20T18:10:57.598Z,4.12
2019-06-20T18:13:25.145Z,3.02
2019-06-20T18:15:52.745Z,1.82
2019-06-20T18:18:20.643Z,2.33
2019-06-20T18:20:48.539Z,2.35
2019-06-20T18:23:16.065Z,2.37
2019-06-20T18:25:44.006Z,3.50
2019-06-20T18:28:11.589Z,2.98
2019-06-20T18:30:43.422Z,3.62
2019-06-20T18:33:11.150Z,4.35
2019-06-20T18:35:39.196Z,3.83
2019-06-20T18:38:06.788Z,6.83
2019-06-20T18:40:34.360Z,7.65
2019-06-20T18:43:02.046Z,7.92
2019-06-20T18:45:29.604Z,4.35
2019-06-20T18:47:57.175Z,3.25
2019-06-20T18:50:24.730Z,4.67
2019-06-20T18:52:52.907Z,5.42
2019-06-20T18:55:21.033Z,5.55
2019-06-20T18:57:48.709Z,4.17
2019-06-20T19:00:30.714Z,6.40
2019-06-20T19:02:46.600Z,2.77
2019-06-20T19:05:14.360Z,4.12
2019-06-20T19:07:41.951Z,5.83
2019-06-20T19:10:10.415Z,3.55
2019-06-20T19:12:37.981Z,7.28
2019-06-20T19:15:05.737Z,5.33
2019-06-20T19:17:33.640Z,7.40
2019-06-20T19:20:01.194Z,7.12
2019-06-20T19:22:29.114Z,8.78
2019-06-20T19:24:56.666Z,7.37
2019-06-20T19:27:24.565Z,6.78
2019-06-20T19:29:52.723Z,5.10
2019-06-20T19:32:20.747Z,6.55
2019-06-20T19:35:01.326Z,6.72
2019-06-20T19:37:18.300Z,5.67
2019-06-20T19:39:46.221Z,6.55
2019-06-20T19:42:13.883Z,6.33
2019-06-20T19:44:41.420Z,6.12
2019-06-20T19:47:09.404Z,5.70
2019-06-20T19:49:37.013Z,6.75
2019-06-20T19:52:04.562Z,6.67
2019-06-20T19:54:32.123Z,5.60
2019-06-20T19:57:00.274Z,8.90
2019-06-20T19:59:27.933Z,13.78
2019-06-20T20:01:55.458Z,11.70
2019-06-20T20:04:23.009Z,6.80
2019-06-20T20:06:50.584Z,8.00
2019-06-20T20:09:18.064Z,9.55
2019-06-20T20:11:45.609Z,12.70
2019-06-20T20:14:13.153Z,10.55
2019-06-20T20:16:40.672Z,5.58
2019-06-20T20:19:08.289Z,7.60
2019-06-20T20:21:35.827Z,5.65
2019-06-20T20:24:03.611Z,5.53
2019-06-20T20:26:31.206Z,9.45
2019-06-20T20:28:58.766Z,7.33
2019-06-20T20:31:26.286Z,8.83
2019-06-20T20:33:53.811Z,8.60
2019-06-20T20:36:25.243Z,10.08
2019-06-20T20:38:50.796Z,4.45
2019-06-20T20:41:18.343Z,6.17
2019-06-20T20:43:52.152Z,7.53
2019-06-20T20:46:21.352Z,5.53
2019-06-20T20:52:40.040Z,5.30
2019-06-20T20:55:07.994Z,7.15
2019-06-20T20:57:35.820Z,10.15
2019-06-20T21:00:04.390Z,8.55
2019-06-20T21:02:31.944Z,6.45
2019-06-20T21:04:59.393Z,7.97
2019-06-20T21:07:26.918Z,6.25
2019-06-20T21:09:54.407Z,5.78
2019-06-20T21:12:21.959Z,4.78
2019-06-20T21:14:49.432Z,5.37
2019-06-20T21:17:17.006Z,5.65
2019-06-20T21:19:44.555Z,4.15
2019-06-20T21:22:12.052Z,5.20
2019-06-20T21:24:39.613Z,6.33
2019-06-20T21:27:07.130Z,3.85
2019-06-20T21:29:34.612Z,7.60
2019-06-20T21:32:02.313Z,6.00
2019-06-20T21:34:30.897Z,6.17
2019-06-20T21:37:09.316Z,6.78
2019-06-20T21:39:38.811Z,8.53
2019-06-20T21:42:06.242Z,4.87
2019-06-20T21:44:33.819Z,8.00
2019-06-20T21:47:01.405Z,7.42
2019-06-20T21:49:28.968Z,9.93
2019-06-20T21:51:56.505Z,7.22
2019-06-20T21:54:24.013Z,8.93
2019-06-20T21:56:51.660Z,6.33
2019-06-20T21:59:19.523Z,9.85
2019-06-20T22:01:48.517Z,7.60
2019-06-20T22:04:16.974Z,9.18
2019-06-20T22:06:44.522Z,9.78
2019-06-20T22:09:12.367Z,9.73
2019-06-20T22:11:40.297Z,12.47
2019-06-20T22:14:07.692Z,7.25
2019-06-20T22:16:35.162Z,7.12
2019-06-20T22:19:02.754Z,9.33
2019-06-20T22:21:30.249Z,6.22
2019-06-20T22:23:57.751Z,4.90
2019-06-20T22:26:25.279Z,3.72
2019-06-20T22:28:52.873Z,10.78
2019-06-20T22:31:20.704Z,6.25
2019-06-20T22:33:48.220Z,5.22
2019-06-20T22:36:15.682Z,3.75
2019-06-20T22:38:43.460Z,4.20
2019-06-20T22:41:11.050Z,4.90
2019-06-20T22:43:38.869Z,4.40
2019-06-20T22:46:06.680Z,7.55
2019-06-20T22:48:34.185Z,6.37
2019-06-20T22:51:01.636Z,3.67
2019-06-20T22:53:29.150Z,2.87
2019-06-20T22:55:56.640Z,5.85
2019-06-20T22:58:24.103Z,5.42
2019-06-20T23:00:51.596Z,7.25
2019-06-20T23:03:19.059Z,13.05
2019-06-20T23:05:46.546Z,6.35
2019-06-20T23:08:14.045Z,6.87
2019-06-20T23:10:41.505Z,4.72
2019-06-20T23:13:08.969Z,7.30
2019-06-20T23:15:36.455Z,5.95
2019-06-20T23:18:03.973Z,5.05
2019-06-20T23:20:31.434Z,9.50
2019-06-20T23:22:58.920Z,9.45
2019-06-20T23:25:26.378Z,7.90
2019-06-20T23:27:53.911Z,8.35
2019-06-20T23:30:21.982Z,8.15
2019-06-20T23:32:49.460Z,10.85
2019-06-20T23:35:16.965Z,17.00
2019-06-20T23:37:44.471Z,7.53
2019-06-20T23:40:12.883Z,6.75
2019-06-20T23:42:40.390Z,6.65
2019-06-20T23:45:08.553Z,11.18
2019-06-20T23:47:36.040Z,13.28
2019-06-20T23:50:03.878Z,6.92
2019-06-20T23:52:33.165Z,7.10
2019-06-20T23:55:00.688Z,9.63
2019-06-20T23:57:28.182Z,11.53
2019-06-20T23:59:55.984Z,8.85
